createdAt,value
2023-05-24T00:01:49.439Z,52.65
2023-05-24T00:04:19.148Z,52.71
2023-05-24T00:06:48.588Z,52.67
2023-05-24T00:09:16.762Z,52.80
2023-05-24T00:11:44.961Z,52.83
2023-05-24T00:14:13.061Z,52.97
2023-05-24T00:16:41.314Z,52.98
2023-05-24T00:19:11.559Z,52.98
2023-05-24T00:21:39.945Z,52.80
2023-05-24T00:24:08.130Z,53.02
2023-05-24T00:26:36.172Z,52.77
2023-05-24T00:29:04.501Z,52.92
2023-05-24T00:31:33.177Z,52.98
2023-05-24T00:34:01.414Z,52.76
2023-05-24T00:36:29.530Z,52.86
2023-05-24T00:38:57.836Z,52.79
2023-05-24T00:41:26.979Z,52.70
2023-05-24T00:43:56.180Z,52.75
2023-05-24T00:46:30.015Z,52.72
2023-05-24T00:49:00.489Z,52.59
2023-05-24T00:51:28.934Z,52.69
2023-05-24T00:53:57.537Z,52.84
2023-05-24T00:56:26.848Z,52.68
2023-05-24T00:58:56.346Z,52.97
2023-05-24T01:01:31.071Z,53.26
2023-05-24T01:03:59.954Z,53.37
2023-05-24T01:06:29.712Z,53.92
2023-05-24T01:09:25.980Z,53.95
2023-05-24T01:12:06.796Z,54.12
2023-05-24T01:15:05.141Z,54.42
2023-05-24T01:17:46.385Z,54.48
2023-05-24T01:20:17.764Z,54.48
2023-05-24T01:23:13.709Z,54.83
2023-05-24T01:26:06.073Z,55.00
2023-05-24T01:28:36.519Z,55.07
2023-05-24T01:31:05.803Z,55.10
2023-05-24T01:33:33.981Z,55.25
2023-05-24T01:36:02.206Z,55.15
2023-05-24T01:38:30.374Z,55.23
2023-05-24T01:41:05.944Z,55.46
2023-05-24T01:43:43.394Z,55.35
2023-05-24T01:46:37.734Z,55.53
2023-05-24T01:49:26.270Z,55.46
2023-05-24T01:52:08.313Z,55.81
2023-05-24T01:54:39.600Z,55.66
2023-05-24T01:57:10.538Z,55.73
2023-05-24T01:59:44.150Z,55.84
2023-05-24T02:02:12.775Z,56.03
2023-05-24T02:04:42.286Z,56.40
2023-05-24T02:07:10.568Z,56.45
2023-05-24T02:09:39.201Z,56.45
2023-05-24T02:12:08.570Z,56.54
2023-05-24T02:14:38.144Z,56.71
2023-05-24T02:17:06.826Z,57.00
2023-05-24T02:19:37.304Z,56.96
2023-05-24T02:22:07.867Z,56.75
2023-05-24T02:24:37.175Z,56.68
2023-05-24T02:27:05.615Z,56.67
2023-05-24T02:29:33.902Z,56.60
2023-05-24T02:32:02.061Z,56.68
2023-05-24T02:34:30.239Z,56.75
2023-05-24T02:36:59.029Z,56.95
2023-05-24T02:39:27.117Z,57.13
2023-05-24T02:41:55.232Z,57.09
2023-05-24T02:44:23.848Z,56.98
2023-05-24T02:46:52.055Z,57.15
2023-05-24T02:49:20.203Z,57.17
2023-05-24T02:51:48.470Z,57.15
2023-05-24T02:54:17.817Z,57.21
2023-05-24T02:56:46.139Z,57.40
2023-05-24T02:59:16.854Z,57.42
2023-05-24T03:01:45.361Z,57.40
2023-05-24T03:04:13.562Z,57.08
2023-05-24T03:06:42.460Z,57.07
2023-05-24T03:09:10.696Z,56.87
2023-05-24T03:11:38.915Z,57.09
2023-05-24T03:14:07.184Z,56.85
2023-05-24T03:16:35.588Z,56.70
2023-05-24T03:19:08.388Z,56.63
2023-05-24T03:21:38.526Z,56.59
2023-05-24T03:24:06.924Z,56.67
2023-05-24T03:26:35.181Z,56.76
2023-05-24T03:29:03.496Z,56.71
2023-05-24T03:31:37.090Z,56.99
2023-05-24T03:34:06.151Z,57.06
2023-05-24T03:36:36.661Z,56.86
2023-05-24T03:39:05.238Z,57.24
2023-05-24T03:41:38.169Z,57.10
2023-05-24T03:44:06.487Z,56.91
2023-05-24T03:46:35.167Z,56.91
2023-05-24T03:49:03.442Z,56.96
2023-05-24T03:51:31.974Z,57.08
2023-05-24T03:54:00.112Z,57.20
2023-05-24T03:56:28.470Z,57.14
2023-05-24T03:59:00.680Z,56.95
2023-05-24T04:01:34.188Z,56.91
2023-05-24T04:04:04.084Z,56.66
2023-05-24T04:06:32.544Z,56.61
2023-05-24T04:09:02.019Z,56.96
2023-05-24T04:11:30.871Z,56.85
2023-05-24T04:14:02.382Z,56.95
2023-05-24T04:16:34.391Z,56.92
2023-05-24T04:19:06.018Z,56.98
2023-05-24T04:21:36.932Z,57.06
2023-05-24T04:24:05.965Z,57.09
2023-05-24T04:26:34.863Z,57.32
2023-05-24T04:29:04.398Z,57.34
2023-05-24T04:31:34.299Z,57.37
2023-05-24T04:34:03.293Z,57.43
2023-05-24T04:36:34.161Z,57.24
2023-05-24T04:39:05.138Z,57.37
2023-05-24T04:41:35.456Z,57.46
2023-05-24T04:44:03.720Z,57.38
2023-05-24T04:46:32.158Z,57.27
2023-05-24T04:49:00.447Z,57.16
2023-05-24T04:51:29.080Z,57.16
2023-05-24T04:53:57.306Z,57.17
2023-05-24T04:56:25.548Z,57.30
2023-05-24T04:58:53.700Z,57.47
2023-05-24T05:01:22.496Z,57.33
2023-05-24T05:03:50.786Z,57.28
2023-05-24T05:06:18.982Z,57.24
2023-05-24T05:08:47.629Z,57.35
2023-05-24T05:11:15.984Z,57.16
2023-05-24T05:13:44.446Z,57.20
2023-05-24T05:16:13.076Z,57.25
2023-05-24T05:18:41.380Z,57.17
2023-05-24T05:21:09.666Z,57.31
2023-05-24T05:23:42.727Z,57.42
2023-05-24T05:26:11.692Z,57.58
2023-05-24T05:28:39.938Z,57.61
2023-05-24T05:31:10.560Z,57.42
2023-05-24T05:33:38.873Z,57.47
2023-05-24T05:36:07.305Z,57.60
2023-05-24T05:38:35.481Z,57.63
2023-05-24T05:41:18.028Z,57.77
2023-05-24T05:43:46.386Z,57.67
2023-05-24T05:46:16.325Z,57.73
2023-05-24T05:48:46.457Z,57.78
2023-05-24T05:51:17.035Z,57.74
2023-05-24T05:53:48.039Z,57.61
2023-05-24T05:56:16.713Z,57.63
2023-05-24T05:58:48.077Z,57.68
2023-05-24T06:01:16.479Z,57.88
2023-05-24T06:03:45.050Z,57.84
2023-05-24T06:06:13.473Z,57.87
2023-05-24T06:08:41.936Z,57.88
2023-05-24T06:11:14.446Z,57.78
2023-05-24T06:13:42.691Z,57.85
2023-05-24T06:16:11.711Z,57.94
2023-05-24T06:18:47.404Z,57.91
2023-05-24T06:21:23.008Z,57.94
2023-05-24T06:24:26.444Z,57.98
2023-05-24T06:27:09.059Z,58.15
2023-05-24T06:29:40.833Z,58.23
2023-05-24T06:32:09.121Z,58.13
2023-05-24T06:34:37.325Z,58.16
2023-05-24T06:37:10.923Z,58.17
2023-05-24T06:39:38.977Z,58.13
2023-05-24T06:42:07.453Z,58.11
2023-05-24T06:44:37.958Z,58.04
2023-05-24T06:47:06.972Z,58.01
2023-05-24T06:49:36.404Z,58.01
2023-05-24T06:52:04.948Z,58.12
2023-05-24T06:54:33.056Z,58.24
2023-05-24T06:57:01.223Z,58.10
2023-05-24T06:59:29.504Z,58.05
2023-05-24T07:01:59.531Z,58.12
2023-05-24T07:04:29.780Z,58.13
2023-05-24T07:06:58.659Z,58.12
2023-05-24T07:09:26.983Z,57.99
2023-05-24T07:11:55.148Z,57.97
2023-05-24T07:14:24.175Z,57.74
2023-05-24T07:16:52.354Z,57.67
2023-05-24T07:19:22.079Z,57.68
2023-05-24T07:21:50.978Z,57.74
2023-05-24T07:24:19.243Z,57.60
2023-05-24T07:26:47.464Z,57.62
2023-05-24T07:29:15.818Z,57.38
2023-05-24T07:31:44.190Z,57.58
2023-05-24T07:34:12.362Z,57.26
2023-05-24T07:36:41.147Z,57.29
2023-05-24T07:39:15.854Z,57.16
2023-05-24T07:41:44.073Z,57.05
2023-05-24T07:44:13.591Z,57.12
2023-05-24T07:46:41.735Z,56.86
2023-05-24T07:49:10.017Z,57.05
2023-05-24T07:51:39.179Z,56.99
2023-05-24T07:54:07.465Z,56.81
2023-05-24T07:56:36.373Z,56.38
2023-05-24T07:59:04.962Z,56.19
2023-05-24T08:01:34.640Z,56.13
2023-05-24T08:04:08.903Z,56.14
2023-05-24T08:06:37.350Z,55.99
2023-05-24T08:09:05.853Z,55.97
2023-05-24T08:11:34.152Z,55.78
2023-05-24T08:14:02.436Z,55.65
2023-05-24T08:16:31.872Z,55.55
2023-05-24T08:19:00.159Z,55.54
2023-05-24T08:21:29.377Z,55.51
2023-05-24T08:23:58.215Z,55.52
2023-05-24T08:26:27.063Z,55.54
2023-05-24T08:28:55.352Z,55.35
2023-05-24T08:31:23.986Z,55.37
2023-05-24T08:33:53.390Z,55.17
2023-05-24T08:36:21.627Z,54.94
2023-05-24T08:38:49.902Z,54.87
2023-05-24T08:41:18.227Z,54.91
2023-05-24T08:43:47.339Z,54.72
2023-05-24T08:46:17.479Z,54.83
2023-05-24T08:48:47.780Z,54.67
2023-05-24T08:51:17.186Z,54.55
2023-05-24T08:53:49.043Z,54.69
2023-05-24T08:56:17.925Z,54.66
2023-05-24T08:58:47.328Z,54.32
2023-05-24T09:01:17.387Z,54.10
2023-05-24T09:03:47.470Z,54.15
2023-05-24T09:06:18.054Z,54.03
2023-05-24T09:08:46.981Z,53.99
2023-05-24T09:11:16.486Z,53.67
2023-05-24T09:13:45.975Z,53.49
2023-05-24T09:16:15.355Z,53.48
2023-05-24T09:18:43.709Z,53.40
2023-05-24T09:21:12.460Z,53.19
2023-05-24T09:23:41.701Z,53.40
2023-05-24T09:26:11.478Z,53.40
2023-05-24T09:28:41.848Z,53.47
2023-05-24T09:31:10.275Z,53.46
2023-05-24T09:33:39.524Z,53.59
2023-05-24T09:36:08.347Z,53.57
2023-05-24T09:38:37.316Z,53.45
2023-05-24T09:41:07.551Z,53.83
2023-05-24T09:43:48.459Z,53.93
2023-05-24T09:46:18.925Z,53.86
2023-05-24T09:48:57.786Z,53.80
2023-05-24T09:51:27.180Z,53.82
2023-05-24T09:54:01.625Z,53.82
2023-05-24T09:56:31.057Z,54.02
2023-05-24T09:58:59.302Z,53.95
2023-05-24T10:01:28.363Z,53.78
2023-05-24T10:03:59.407Z,53.94
2023-05-24T10:06:28.623Z,53.97
2023-05-24T10:08:57.235Z,54.09
2023-05-24T10:11:26.827Z,53.96
2023-05-24T10:13:55.709Z,53.92
2023-05-24T10:16:23.880Z,53.58
2023-05-24T10:18:52.113Z,53.67
2023-05-24T10:21:23.750Z,53.67
2023-05-24T10:23:59.778Z,53.60
2023-05-24T10:26:32.267Z,53.65
2023-05-24T10:29:08.249Z,53.49
2023-05-24T10:31:40.494Z,53.35
2023-05-24T10:34:10.550Z,53.57
2023-05-24T10:36:40.740Z,53.40
2023-05-24T10:39:13.751Z,53.48
2023-05-24T10:41:42.506Z,53.29
2023-05-24T10:44:13.348Z,53.31
2023-05-24T10:47:06.972Z,53.08
2023-05-24T10:49:36.170Z,53.03
2023-05-24T10:52:09.002Z,53.05
2023-05-24T10:54:39.808Z,52.77
2023-05-24T10:57:11.379Z,52.60
2023-05-24T10:59:40.121Z,52.68
2023-05-24T11:02:15.268Z,52.63
2023-05-24T11:04:47.002Z,52.30
2023-05-24T11:07:17.404Z,52.65
2023-05-24T11:09:53.175Z,52.61
2023-05-24T11:12:21.623Z,52.39
2023-05-24T11:14:52.566Z,52.48
2023-05-24T11:17:23.404Z,52.53
2023-05-24T11:19:54.071Z,52.78
2023-05-24T11:22:25.778Z,52.69
2023-05-24T11:24:54.454Z,52.80
2023-05-24T11:27:24.066Z,52.66
2023-05-24T11:29:54.327Z,52.62
2023-05-24T11:32:24.241Z,52.54
2023-05-24T11:34:52.887Z,52.47
2023-05-24T11:37:31.595Z,52.18
2023-05-24T11:40:10.246Z,52.13
2023-05-24T11:42:39.388Z,52.23
2023-05-24T11:45:10.205Z,52.00
2023-05-24T11:47:38.654Z,52.07
2023-05-24T11:50:07.973Z,51.94
2023-05-24T11:52:41.180Z,51.93
2023-05-24T11:55:16.442Z,51.82
2023-05-24T11:57:54.562Z,51.95
2023-05-24T12:00:27.285Z,51.39
2023-05-24T12:03:05.300Z,51.25
2023-05-24T12:05:36.332Z,50.94
2023-05-24T12:08:11.820Z,50.94
2023-05-24T12:10:42.418Z,50.89
2023-05-24T12:13:25.360Z,50.89
2023-05-24T12:15:56.620Z,50.52
2023-05-24T12:18:26.589Z,50.86
2023-05-24T12:20:55.321Z,50.88
2023-05-24T12:23:25.202Z,50.77
2023-05-24T12:26:00.406Z,50.52
2023-05-24T12:28:36.329Z,50.60
2023-05-24T12:31:05.858Z,50.39
2023-05-24T12:33:34.431Z,50.54
2023-05-24T12:36:02.984Z,50.35
2023-05-24T12:38:31.878Z,50.57
2023-05-24T12:41:12.274Z,50.67
2023-05-24T12:43:44.568Z,50.51
2023-05-24T12:46:13.472Z,50.57
2023-05-24T12:48:42.050Z,50.21
2023-05-24T12:51:11.449Z,50.38
2023-05-24T12:53:39.739Z,50.43
2023-05-24T12:56:08.653Z,50.58
2023-05-24T12:58:36.867Z,50.30
2023-05-24T13:01:05.276Z,50.29
2023-05-24T13:03:33.624Z,50.02
2023-05-24T13:06:02.042Z,49.93
2023-05-24T13:08:30.550Z,49.91
2023-05-24T13:10:58.927Z,49.91
2023-05-24T13:13:28.976Z,49.76
2023-05-24T13:15:57.352Z,49.73
2023-05-24T13:18:26.457Z,49.91
2023-05-24T13:20:54.723Z,49.84
2023-05-24T13:23:23.602Z,49.75
2023-05-24T13:25:55.974Z,49.69
2023-05-24T13:28:24.566Z,49.66
2023-05-24T13:30:53.778Z,49.48
2023-05-24T13:33:22.092Z,49.45
2023-05-24T13:35:50.484Z,49.57
2023-05-24T13:38:18.666Z,49.43
2023-05-24T13:40:47.833Z,49.14
2023-05-24T13:43:16.414Z,49.03
2023-05-24T13:45:45.698Z,48.98
2023-05-24T13:48:13.890Z,48.91
2023-05-24T13:50:42.406Z,48.86
2023-05-24T13:53:11.010Z,48.83
2023-05-24T13:55:39.242Z,48.87
2023-05-24T13:58:08.051Z,48.94
2023-05-24T14:00:36.498Z,48.69
2023-05-24T14:03:06.181Z,48.66
2023-05-24T14:05:35.134Z,48.69
2023-05-24T14:08:06.921Z,48.73
2023-05-24T14:10:37.150Z,48.37
2023-05-24T14:15:38.251Z,48.42
2023-05-24T14:18:08.641Z,48.49
2023-05-24T14:20:38.130Z,48.28
2023-05-24T14:23:11.854Z,47.96
2023-05-24T14:25:41.600Z,47.99
2023-05-24T14:28:10.023Z,47.81
2023-05-24T14:30:38.409Z,47.53
2023-05-24T14:33:08.397Z,47.65
2023-05-24T14:35:41.340Z,47.34
2023-05-24T14:38:11.666Z,47.14
2023-05-24T14:40:41.099Z,47.15
2023-05-24T14:43:11.007Z,46.83
2023-05-24T14:45:42.048Z,46.78
2023-05-24T14:48:11.874Z,46.40
2023-05-24T14:50:41.537Z,46.22
2023-05-24T14:53:12.619Z,46.16
2023-05-24T14:55:43.169Z,45.90
2023-05-24T14:58:13.030Z,45.60
2023-05-24T15:00:43.230Z,45.35
2023-05-24T15:03:13.164Z,45.01
2023-05-24T15:05:42.991Z,44.95
2023-05-24T15:08:11.708Z,44.95
2023-05-24T15:10:40.997Z,44.75
2023-05-24T15:13:09.796Z,44.75
2023-05-24T15:15:37.968Z,44.60
2023-05-24T15:18:07.128Z,44.56
2023-05-24T15:20:36.579Z,44.42
2023-05-24T15:23:05.088Z,44.41
2023-05-24T15:25:33.333Z,44.33
2023-05-24T15:28:01.699Z,44.09
2023-05-24T15:30:30.336Z,43.95
2023-05-24T15:32:58.645Z,43.96
2023-05-24T15:35:26.932Z,43.76
2023-05-24T15:37:55.222Z,43.59
2023-05-24T15:40:24.624Z,43.43
2023-05-24T15:42:53.300Z,43.26
2023-05-24T15:45:21.978Z,43.01
2023-05-24T15:47:50.437Z,43.00
2023-05-24T15:50:25.896Z,42.91
2023-05-24T15:53:00.481Z,42.79
2023-05-24T15:55:29.057Z,42.62
2023-05-24T15:57:58.411Z,42.37
2023-05-24T16:00:26.969Z,42.37
2023-05-24T16:02:57.083Z,42.17
2023-05-24T16:05:27.020Z,42.06
2023-05-24T16:07:55.514Z,41.73
2023-05-24T16:10:24.129Z,41.46
2023-05-24T16:12:52.290Z,41.12
2023-05-24T16:15:20.476Z,40.87
2023-05-24T16:17:48.786Z,40.92
2023-05-24T16:20:17.069Z,40.99
2023-05-24T16:22:51.520Z,41.08
2023-05-24T16:25:19.853Z,41.01
2023-05-24T16:27:48.093Z,40.65
2023-05-24T16:30:16.805Z,40.72
2023-05-24T16:32:46.460Z,40.67
2023-05-24T16:35:14.883Z,40.81
2023-05-24T16:37:43.392Z,40.72
2023-05-24T16:40:12.314Z,40.91
2023-05-24T16:42:40.662Z,41.12
2023-05-24T16:45:09.151Z,41.28
2023-05-24T16:47:37.659Z,41.41
2023-05-24T16:50:07.045Z,41.50
2023-05-24T16:52:35.571Z,41.74
2023-05-24T16:55:04.380Z,42.03
2023-05-24T16:57:32.816Z,42.19
2023-05-24T17:00:01.354Z,42.21
2023-05-24T17:02:29.821Z,42.37
2023-05-24T17:04:59.091Z,42.47
2023-05-24T17:07:28.040Z,42.58
2023-05-24T17:09:56.872Z,42.67
2023-05-24T17:12:25.151Z,42.72
2023-05-24T17:14:53.438Z,42.82
2023-05-24T17:17:22.111Z,42.99
2023-05-24T17:19:50.718Z,43.16
2023-05-24T17:22:19.345Z,43.22
2023-05-24T17:24:47.910Z,43.08
2023-05-24T17:27:19.992Z,43.21
2023-05-24T17:29:51.201Z,43.37
2023-05-24T17:32:19.813Z,43.44
2023-05-24T17:34:48.035Z,43.77
2023-05-24T17:37:17.388Z,43.91
2023-05-24T17:39:45.921Z,43.99
2023-05-24T17:42:14.388Z,43.99
2023-05-24T17:44:43.062Z,44.20
2023-05-24T17:47:11.536Z,44.38
2023-05-24T17:49:40.164Z,44.43
2023-05-24T17:52:09.115Z,44.47
2023-05-24T17:54:37.762Z,44.61
2023-05-24T17:57:07.945Z,44.82
2023-05-24T17:59:36.245Z,44.88
2023-05-24T18:02:05.004Z,45.00
2023-05-24T18:04:33.488Z,45.07
2023-05-24T18:07:02.996Z,45.18
2023-05-24T18:09:31.201Z,45.15
2023-05-24T18:11:59.669Z,45.41
2023-05-24T18:14:28.023Z,45.57
2023-05-24T18:16:58.651Z,45.53
2023-05-24T18:19:28.070Z,45.65
2023-05-24T18:21:56.274Z,45.80
2023-05-24T18:24:25.041Z,46.06
2023-05-24T18:26:53.588Z,46.02
2023-05-24T18:29:23.936Z,46.18
2023-05-24T18:31:53.457Z,46.35
2023-05-24T18:34:22.260Z,46.54
2023-05-24T18:36:51.018Z,46.67
2023-05-24T18:39:19.772Z,46.79
2023-05-24T18:41:48.602Z,46.86
2023-05-24T18:44:17.280Z,46.96
2023-05-24T18:46:46.068Z,47.03
2023-05-24T18:49:14.500Z,47.19
2023-05-24T18:51:42.873Z,47.38
2023-05-24T18:54:11.458Z,47.75
2023-05-24T18:56:40.771Z,47.77
2023-05-24T18:59:12.578Z,47.78
2023-05-24T19:01:42.261Z,47.85
2023-05-24T19:04:10.785Z,48.25
2023-05-24T19:06:39.378Z,48.09
2023-05-24T19:09:08.140Z,48.26
2023-05-24T19:11:36.551Z,48.23
2023-05-24T19:14:05.372Z,48.12
2023-05-24T19:16:34.925Z,48.19
2023-05-24T19:19:03.939Z,48.33
2023-05-24T19:21:33.465Z,48.38
2023-05-24T19:24:01.915Z,48.46
2023-05-24T19:26:30.295Z,48.53
2023-05-24T19:29:00.670Z,48.70
2023-05-24T19:31:30.110Z,48.80
2023-05-24T19:34:00.527Z,49.11
2023-05-24T19:36:31.326Z,49.13
2023-05-24T19:39:00.878Z,49.14
2023-05-24T19:41:29.503Z,49.02
2023-05-24T19:43:58.931Z,49.24
2023-05-24T19:46:28.448Z,49.40
2023-05-24T19:48:57.798Z,49.17
2023-05-24T19:51:26.381Z,49.29
2023-05-24T19:53:56.216Z,49.29
2023-05-24T19:56:25.186Z,49.39
2023-05-24T19:58:53.879Z,49.37
2023-05-24T20:01:22.405Z,49.59
2023-05-24T20:03:54.291Z,49.80
2023-05-24T20:06:22.908Z,49.63
2023-05-24T20:08:52.606Z,49.79
2023-05-24T20:11:21.090Z,49.73
2023-05-24T20:13:49.781Z,50.07
2023-05-24T20:16:19.105Z,50.03
2023-05-24T20:18:47.587Z,50.01
2023-05-24T20:21:19.221Z,50.12
2023-05-24T20:23:49.939Z,50.12
2023-05-24T20:26:18.478Z,50.20
2023-05-24T20:28:50.283Z,50.28
2023-05-24T20:31:20.014Z,50.38
2023-05-24T20:33:51.705Z,50.53
2023-05-24T20:36:20.459Z,50.59
2023-05-24T20:38:49.241Z,50.48
2023-05-24T20:41:18.148Z,50.72
2023-05-24T20:43:47.103Z,50.92
2023-05-24T20:46:16.701Z,50.79
2023-05-24T20:48:45.589Z,50.78
2023-05-24T20:51:14.124Z,50.86
2023-05-24T20:53:42.544Z,50.96
2023-05-24T20:56:12.542Z,50.90
2023-05-24T20:58:41.571Z,50.79
2023-05-24T21:01:09.910Z,50.99
2023-05-24T21:03:38.701Z,50.98
2023-05-24T21:06:07.168Z,50.81
2023-05-24T21:08:35.439Z,51.05
2023-05-24T21:11:03.739Z,51.04
2023-05-24T21:13:31.998Z,50.92
2023-05-24T21:16:00.198Z,51.03
2023-05-24T21:18:28.407Z,51.09
2023-05-24T21:20:56.969Z,50.97
2023-05-24T21:23:25.920Z,51.12
2023-05-24T21:25:54.077Z,51.35
2023-05-24T21:28:22.261Z,51.23
2023-05-24T21:30:52.479Z,51.12
2023-05-24T21:33:20.789Z,51.32
2023-05-24T21:35:48.953Z,51.15
2023-05-24T21:38:17.207Z,51.21
2023-05-24T21:40:45.527Z,51.02
2023-05-24T21:43:13.792Z,51.12
2023-05-24T21:45:42.498Z,51.17
2023-05-24T21:48:11.111Z,51.11
2023-05-24T21:50:39.442Z,51.21
2023-05-24T21:53:07.758Z,51.04
2023-05-24T21:55:38.411Z,51.12
2023-05-24T21:58:06.786Z,51.10
2023-05-24T22:00:35.426Z,51.15
2023-05-24T22:03:03.783Z,51.15
2023-05-24T22:05:32.033Z,51.15
2023-05-24T22:08:00.196Z,51.06
2023-05-24T22:10:28.597Z,51.23
2023-05-24T22:12:56.792Z,51.31
2023-05-24T22:15:25.052Z,51.28
2023-05-24T22:17:58.434Z,51.33
2023-05-24T22:20:27.766Z,51.11
2023-05-24T22:22:56.116Z,51.45
2023-05-24T22:25:24.685Z,51.33
2023-05-24T22:27:55.693Z,51.38
2023-05-24T22:30:24.269Z,51.27
2023-05-24T22:32:52.749Z,51.38
2023-05-24T22:35:20.938Z,51.26
2023-05-24T22:37:49.156Z,51.32
2023-05-24T22:40:18.578Z,51.31
2023-05-24T22:42:46.898Z,51.21
2023-05-24T22:45:15.363Z,51.20
2023-05-24T22:47:43.623Z,51.45
2023-05-24T22:50:12.034Z,51.29
2023-05-24T22:52:42.873Z,51.41
2023-05-24T22:55:11.230Z,51.33
2023-05-24T22:57:39.456Z,51.42
2023-05-24T23:00:08.431Z,51.59
2023-05-24T23:02:36.880Z,51.50
2023-05-24T23:05:05.834Z,51.54
2023-05-24T23:07:34.054Z,51.50
2023-05-24T23:10:03.261Z,51.52
2023-05-24T23:12:31.494Z,51.80
2023-05-24T23:14:59.696Z,51.60
2023-05-24T23:17:28.131Z,51.69
2023-05-24T23:19:56.786Z,51.58
2023-05-24T23:22:26.376Z,51.81
2023-05-24T23:24:54.537Z,51.84
2023-05-24T23:27:23.846Z,51.75
2023-05-24T23:29:52.353Z,51.80
2023-05-24T23:32:20.608Z,52.14
2023-05-24T23:34:48.792Z,52.07
2023-05-24T23:37:17.144Z,52.11
2023-05-24T23:39:45.347Z,52.12
2023-05-24T23:42:13.590Z,51.99
2023-05-24T23:44:41.808Z,52.01
2023-05-24T23:47:10.000Z,52.17
2023-05-24T23:49:38.286Z,52.21
2023-05-24T23:52:06.981Z,52.38
2023-05-24T23:54:35.249Z,52.49
2023-05-24T23:57:04.183Z,52.43
2023-05-24T23:59:32.292Z,52.59
